createdAt,value
2018-02-20T00:02:16.081Z,29.17
2018-02-20T00:04:43.550Z,32.10
2018-02-20T00:07:11.026Z,30.20
2018-02-20T00:09:38.507Z,32.50
2018-02-20T00:12:06.046Z,30.87
2018-02-20T00:14:33.529Z,31.43
2018-02-20T00:17:01.013Z,32.27
2018-02-20T00:19:28.501Z,31.37
2018-02-20T00:21:56.026Z,29.40
2018-02-20T00:24:23.615Z,30.27
2018-02-20T00:26:51.091Z,30.70
2018-02-20T00:29:18.563Z,30.90
2018-02-20T00:31:46.112Z,30.00
2018-02-20T00:34:13.600Z,30.87
2018-02-20T00:36:41.079Z,30.77
2018-02-20T00:39:08.629Z,31.40
2018-02-20T00:41:36.541Z,35.03
2018-02-20T00:44:04.007Z,30.67
2018-02-20T00:46:31.546Z,33.67
2018-02-20T00:48:59.026Z,31.80
2018-02-20T00:51:26.540Z,33.60
2018-02-20T00:53:54.014Z,32.83
2018-02-20T00:56:21.495Z,32.20
2018-02-20T00:58:49.005Z,30.83
2018-02-20T01:01:16.482Z,32.23
2018-02-20T01:03:44.063Z,32.20
2018-02-20T01:06:12.432Z,31.13
2018-02-20T01:08:39.923Z,33.43
2018-02-20T01:11:07.462Z,32.57
2018-02-20T01:13:34.970Z,31.90
2018-02-20T01:16:02.449Z,31.07
2018-02-20T01:18:29.929Z,32.40
2018-02-20T01:20:57.406Z,33.23
2018-02-20T01:23:24.940Z,31.00
2018-02-20T01:25:52.623Z,30.80
2018-02-20T01:28:20.206Z,29.70
2018-02-20T01:30:47.763Z,30.93
2018-02-20T01:33:17.085Z,31.97
2018-02-20T01:35:44.687Z,30.87
2018-02-20T01:38:12.175Z,32.20
2018-02-20T01:40:39.640Z,30.50
2018-02-20T01:43:07.180Z,31.43
2018-02-20T01:45:34.783Z,29.07
2018-02-20T01:48:02.304Z,33.50
2018-02-20T01:50:29.791Z,31.87
2018-02-20T01:52:57.306Z,31.80
2018-02-20T01:55:24.840Z,29.73
2018-02-20T01:57:52.315Z,31.50
2018-02-20T02:00:19.857Z,33.53
2018-02-20T02:02:47.318Z,33.63
2018-02-20T02:05:14.804Z,29.73
2018-02-20T02:07:42.373Z,31.73
2018-02-20T02:10:09.965Z,30.70
2018-02-20T02:12:37.511Z,31.23
2018-02-20T02:15:05.035Z,29.90
2018-02-20T02:17:32.478Z,33.97
2018-02-20T02:19:59.954Z,31.93
2018-02-20T02:22:27.465Z,32.37
2018-02-20T02:24:54.930Z,31.73
2018-02-20T02:27:22.410Z,32.67
2018-02-20T02:29:49.886Z,31.50
2018-02-20T02:32:17.393Z,30.50
2018-02-20T02:34:44.875Z,30.57
2018-02-20T02:37:12.421Z,30.20
2018-02-20T02:39:39.905Z,30.47
2018-02-20T02:42:07.475Z,31.40
2018-02-20T02:44:34.946Z,28.07
2018-02-20T02:47:02.437Z,29.80
2018-02-20T02:49:29.910Z,29.83
2018-02-20T02:51:57.378Z,29.00
2018-02-20T02:54:24.890Z,29.97
2018-02-20T02:56:52.364Z,29.80
2018-02-20T02:59:19.865Z,28.93
2018-02-20T03:01:47.339Z,28.97
2018-02-20T03:04:14.916Z,31.43
2018-02-20T03:06:42.489Z,29.70
2018-02-20T03:09:10.060Z,31.60
2018-02-20T03:11:37.524Z,30.10
2018-02-20T03:14:05.045Z,31.70
2018-02-20T03:16:32.544Z,30.57
2018-02-20T03:19:00.043Z,28.33
2018-02-20T03:21:27.624Z,31.77
2018-02-20T03:23:55.093Z,29.23
2018-02-20T03:26:22.576Z,30.17
2018-02-20T03:28:50.039Z,28.27
2018-02-20T03:31:17.597Z,29.03
2018-02-20T03:33:45.772Z,29.37
2018-02-20T03:36:13.245Z,31.60
2018-02-20T03:38:40.726Z,31.13
2018-02-20T03:41:08.215Z,30.97
2018-02-20T03:43:35.689Z,32.93
2018-02-20T03:46:03.154Z,31.23
2018-02-20T03:48:30.724Z,33.00
2018-02-20T03:50:58.461Z,31.57
2018-02-20T03:53:25.921Z,32.97
2018-02-20T03:55:53.406Z,29.83
2018-02-20T03:58:20.872Z,31.07
2018-02-20T04:00:48.399Z,30.77
2018-02-20T04:03:15.873Z,31.33
2018-02-20T04:05:43.346Z,29.97
2018-02-20T04:08:10.832Z,31.83
2018-02-20T04:10:38.349Z,33.10
2018-02-20T04:13:05.908Z,32.80
2018-02-20T04:15:33.439Z,31.97
2018-02-20T04:18:01.031Z,32.83
2018-02-20T04:20:28.553Z,34.10
2018-02-20T04:22:56.026Z,35.47
2018-02-20T04:25:23.516Z,30.77
2018-02-20T04:27:51.022Z,33.27
2018-02-20T04:30:18.494Z,32.87
2018-02-20T04:32:45.981Z,36.37
2018-02-20T04:35:13.452Z,33.03
2018-02-20T04:37:40.948Z,34.07
2018-02-20T04:40:08.407Z,32.73
2018-02-20T04:42:35.953Z,33.13
2018-02-20T04:45:06.397Z,34.90
2018-02-20T04:47:33.862Z,32.60
2018-02-20T04:50:01.382Z,34.23
2018-02-20T04:52:28.954Z,34.13
2018-02-20T04:54:56.426Z,34.77
2018-02-20T04:57:23.898Z,35.70
2018-02-20T04:59:51.394Z,33.57
2018-02-20T05:02:18.876Z,34.17
2018-02-20T05:04:46.364Z,34.07
2018-02-20T05:07:13.877Z,33.23
2018-02-20T05:09:41.463Z,35.40
2018-02-20T05:12:09.029Z,33.30
2018-02-20T05:14:36.511Z,33.43
2018-02-20T05:17:03.995Z,33.60
2018-02-20T05:19:31.474Z,36.70
2018-02-20T05:21:58.954Z,37.93
2018-02-20T05:24:26.456Z,33.50
2018-02-20T05:26:53.925Z,34.90
2018-02-20T05:29:21.423Z,33.93
2018-02-20T05:31:48.897Z,33.47
2018-02-20T05:34:16.412Z,33.43
2018-02-20T05:36:43.889Z,36.03
2018-02-20T05:39:11.402Z,34.57
2018-02-20T05:41:38.890Z,35.77
2018-02-20T05:44:06.363Z,31.33
2018-02-20T05:46:33.940Z,33.87
2018-02-20T05:49:01.400Z,31.90
2018-02-20T05:51:28.873Z,32.47
2018-02-20T05:53:56.444Z,32.97
2018-02-20T05:56:23.944Z,32.27
2018-02-20T05:58:51.495Z,32.27
2018-02-20T06:01:18.952Z,31.53
2018-02-20T06:03:46.525Z,32.73
2018-02-20T06:06:13.989Z,31.40
2018-02-20T06:08:41.465Z,31.77
2018-02-20T06:11:08.994Z,31.87
2018-02-20T06:13:36.573Z,34.27
2018-02-20T06:16:04.089Z,30.60
2018-02-20T06:18:31.650Z,31.20
2018-02-20T06:20:59.108Z,30.27
2018-02-20T06:23:26.583Z,31.37
2018-02-20T06:25:54.121Z,32.40
2018-02-20T06:28:21.591Z,31.43
2018-02-20T06:30:49.095Z,30.17
2018-02-20T06:33:16.579Z,28.50
2018-02-20T06:35:44.152Z,33.87
2018-02-20T06:38:12.061Z,33.93
2018-02-20T06:40:39.532Z,30.70
2018-02-20T06:43:06.991Z,32.57
2018-02-20T06:45:34.464Z,29.73
2018-02-20T06:48:02.068Z,30.47
2018-02-20T06:50:29.619Z,33.90
2018-02-20T06:52:57.134Z,32.77
2018-02-20T06:55:24.601Z,30.30
2018-02-20T06:57:52.128Z,31.87
2018-02-20T07:00:19.585Z,32.87
2018-02-20T07:02:47.086Z,31.77
2018-02-20T07:05:14.611Z,31.97
2018-02-20T07:07:42.083Z,31.40
2018-02-20T07:10:09.558Z,32.30
2018-02-20T07:12:37.122Z,33.07
2018-02-20T07:15:04.588Z,35.53
2018-02-20T07:17:32.081Z,32.97
2018-02-20T07:19:59.648Z,32.57
2018-02-20T07:22:27.213Z,33.27
2018-02-20T07:24:54.702Z,33.37
2018-02-20T07:27:22.160Z,31.93
2018-02-20T07:29:49.632Z,34.43
2018-02-20T07:32:17.131Z,32.63
2018-02-20T07:34:44.609Z,31.20
2018-02-20T07:37:12.153Z,32.60
2018-02-20T07:39:39.710Z,31.83
2018-02-20T07:42:07.295Z,30.67
2018-02-20T07:44:34.792Z,29.40
2018-02-20T07:47:02.325Z,31.77
2018-02-20T07:49:29.801Z,31.67
2018-02-20T07:51:57.384Z,31.47
2018-02-20T07:54:24.945Z,32.73
2018-02-20T07:56:52.407Z,31.47
2018-02-20T07:59:19.928Z,32.00
2018-02-20T08:01:47.392Z,30.47
2018-02-20T08:04:14.877Z,32.97
2018-02-20T08:06:42.351Z,30.37
2018-02-20T08:09:09.838Z,31.20
2018-02-20T08:11:38.518Z,31.83
2018-02-20T08:14:05.997Z,29.20
2018-02-20T08:16:33.508Z,32.70
2018-02-20T08:19:00.971Z,31.00
2018-02-20T08:21:28.446Z,29.73
2018-02-20T08:23:55.941Z,31.47
2018-02-20T08:26:23.418Z,31.47
2018-02-20T08:28:50.985Z,30.20
2018-02-20T08:31:18.533Z,31.83
2018-02-20T08:33:46.019Z,31.70
2018-02-20T08:36:13.589Z,32.57
2018-02-20T08:38:41.093Z,30.67
2018-02-20T08:41:08.581Z,31.30
2018-02-20T08:43:36.046Z,30.43
2018-02-20T08:46:03.532Z,31.00
2018-02-20T08:48:30.992Z,31.33
2018-02-20T08:50:58.518Z,29.60
2018-02-20T08:53:25.979Z,30.47
2018-02-20T08:55:53.484Z,28.97
2018-02-20T08:58:21.482Z,31.60
2018-02-20T09:00:48.956Z,28.60
2018-02-20T09:03:16.437Z,29.73
2018-02-20T09:05:43.917Z,28.63
2018-02-20T09:08:11.415Z,29.33
2018-02-20T09:10:38.871Z,29.20
2018-02-20T09:13:06.349Z,30.30
2018-02-20T09:15:33.830Z,28.70
2018-02-20T09:18:01.309Z,28.63
2018-02-20T09:20:28.776Z,27.27
2018-02-20T09:22:56.346Z,27.30
2018-02-20T09:25:23.814Z,28.10
2018-02-20T09:27:51.289Z,30.27
2018-02-20T09:30:18.852Z,30.53
2018-02-20T09:32:46.336Z,30.03
2018-02-20T09:35:13.798Z,29.00
2018-02-20T09:37:41.286Z,27.97
2018-02-20T09:40:08.816Z,28.60
2018-02-20T09:42:36.328Z,27.13
2018-02-20T09:45:03.894Z,26.87
2018-02-20T09:47:31.368Z,27.47
2018-02-20T09:49:58.909Z,25.63
2018-02-20T09:52:26.398Z,27.47
2018-02-20T09:54:53.894Z,25.80
2018-02-20T09:57:21.362Z,24.93
2018-02-20T09:59:48.910Z,23.20
2018-02-20T10:02:17.725Z,22.33
2018-02-20T10:04:45.211Z,22.83
2018-02-20T10:07:12.692Z,22.50
2018-02-20T10:09:40.226Z,21.87
2018-02-20T10:12:07.811Z,22.80
2018-02-20T10:14:35.384Z,20.23
2018-02-20T10:17:02.946Z,21.47
2018-02-20T10:19:30.397Z,22.53
2018-02-20T10:21:57.886Z,22.03
2018-02-20T10:24:25.350Z,21.33
2018-02-20T10:26:52.822Z,20.53
2018-02-20T10:29:20.303Z,21.70
2018-02-20T10:31:47.953Z,23.43
2018-02-20T10:34:15.410Z,20.97
2018-02-20T10:36:42.927Z,22.83
2018-02-20T10:39:10.382Z,20.83
2018-02-20T10:41:37.957Z,22.10
2018-02-20T10:44:05.567Z,21.37
2018-02-20T10:46:33.029Z,20.93
2018-02-20T10:49:00.581Z,21.53
2018-02-20T10:51:28.138Z,21.33
2018-02-20T10:53:55.606Z,21.33
2018-02-20T10:56:23.197Z,23.73
2018-02-20T10:58:50.783Z,20.70
2018-02-20T11:01:18.254Z,21.70
2018-02-20T11:03:45.733Z,21.07
2018-02-20T11:06:13.204Z,20.60
2018-02-20T11:08:40.757Z,18.53
2018-02-20T11:11:08.221Z,18.53
2018-02-20T11:13:35.691Z,19.70
2018-02-20T11:16:03.166Z,19.37
2018-02-20T11:18:30.635Z,20.23
2018-02-20T11:20:58.208Z,18.67
2018-02-20T11:23:25.821Z,17.80
2018-02-20T11:25:53.341Z,18.47
2018-02-20T11:28:20.823Z,19.57
2018-02-20T11:30:48.337Z,19.47
2018-02-20T11:33:15.804Z,18.97
2018-02-20T11:35:43.269Z,18.27
2018-02-20T11:38:10.809Z,18.73
2018-02-20T11:40:38.274Z,17.53
2018-02-20T11:43:05.770Z,19.40
2018-02-20T11:45:33.231Z,19.50
2018-02-20T11:48:00.724Z,19.13
2018-02-20T11:50:28.178Z,20.17
2018-02-20T11:52:55.647Z,19.33
2018-02-20T11:55:23.213Z,19.67
2018-02-20T11:57:50.779Z,21.13
2018-02-20T12:00:18.250Z,18.27
2018-02-20T12:02:45.768Z,17.90
2018-02-20T12:05:13.240Z,20.43
2018-02-20T12:07:40.793Z,20.17
2018-02-20T12:10:08.337Z,21.87
2018-02-20T12:12:35.810Z,20.03
2018-02-20T12:15:03.285Z,19.10
2018-02-20T12:17:30.745Z,22.53
2018-02-20T12:19:58.521Z,21.23
2018-02-20T12:22:25.997Z,22.00
2018-02-20T12:24:53.615Z,21.60
2018-02-20T12:27:21.299Z,24.90
2018-02-20T12:29:49.324Z,23.03
2018-02-20T12:32:17.103Z,26.07
2018-02-20T12:34:44.771Z,27.10
2018-02-20T12:37:12.236Z,27.43
2018-02-20T12:39:39.705Z,26.63
2018-02-20T12:42:07.185Z,25.30
2018-02-20T12:44:34.810Z,29.17
2018-02-20T12:47:02.279Z,28.10
2018-02-20T12:49:29.800Z,28.47
2018-02-20T12:51:57.382Z,27.73
2018-02-20T12:54:24.850Z,27.03
2018-02-20T12:56:52.366Z,27.57
2018-02-20T12:59:20.040Z,27.87
2018-02-20T13:01:47.530Z,27.03
2018-02-20T13:04:15.009Z,28.60
2018-02-20T13:06:42.517Z,30.43
2018-02-20T13:09:10.002Z,29.30
2018-02-20T13:11:37.462Z,27.60
2018-02-20T13:14:04.937Z,27.07
2018-02-20T13:16:32.493Z,26.97
2018-02-20T13:19:00.043Z,28.53
2018-02-20T13:21:27.533Z,27.50
2018-02-20T13:23:55.119Z,27.63
2018-02-20T13:26:23.005Z,28.47
2018-02-20T13:28:50.482Z,27.97
2018-02-20T13:31:17.954Z,28.77
2018-02-20T13:33:45.409Z,25.97
2018-02-20T13:36:12.880Z,27.17
2018-02-20T13:38:40.353Z,28.20
2018-02-20T13:41:07.833Z,26.13
2018-02-20T13:43:35.396Z,29.60
2018-02-20T13:46:02.970Z,25.90
2018-02-20T13:48:30.545Z,28.50
2018-02-20T13:50:58.302Z,29.27
2018-02-20T13:53:25.800Z,26.97
2018-02-20T13:55:53.378Z,28.93
2018-02-20T13:58:20.936Z,30.50
2018-02-20T14:00:48.407Z,29.57
2018-02-20T14:03:15.916Z,33.03
2018-02-20T14:05:43.394Z,34.40
2018-02-20T14:08:10.925Z,31.03
2018-02-20T14:10:38.500Z,30.67
2018-02-20T14:13:06.048Z,32.67
2018-02-20T14:15:33.541Z,30.67
2018-02-20T14:18:01.211Z,31.67
2018-02-20T14:20:28.701Z,33.47
2018-02-20T14:22:56.201Z,31.87
2018-02-20T14:25:23.724Z,32.10
2018-02-20T14:27:51.193Z,31.50
2018-02-20T14:30:18.784Z,32.63
2018-02-20T14:32:46.383Z,31.80
2018-02-20T14:35:13.895Z,31.20
2018-02-20T14:37:41.381Z,31.93
2018-02-20T14:40:08.850Z,36.73
2018-02-20T14:42:36.328Z,32.77
2018-02-20T14:45:03.797Z,35.93
2018-02-20T14:47:31.270Z,36.97
2018-02-20T14:49:58.738Z,36.73
2018-02-20T14:52:26.230Z,39.13
2018-02-20T14:54:53.690Z,41.70
2018-02-20T14:57:21.169Z,40.47
2018-02-20T14:59:48.662Z,38.60
2018-02-20T15:02:16.138Z,41.50
2018-02-20T15:04:43.605Z,41.23
2018-02-20T15:07:11.107Z,41.80
2018-02-20T15:09:38.607Z,41.13
2018-02-20T15:12:06.073Z,44.00
2018-02-20T15:14:33.581Z,41.70
2018-02-20T15:17:01.111Z,43.60
2018-02-20T15:19:28.583Z,42.33
2018-02-20T15:21:56.219Z,42.37
2018-02-20T15:24:23.711Z,43.17
2018-02-20T15:26:51.183Z,44.40
2018-02-20T15:29:18.677Z,44.17
2018-02-20T15:31:46.141Z,43.53
2018-02-20T15:34:13.776Z,46.20
2018-02-20T15:36:41.304Z,44.17
2018-02-20T15:39:08.774Z,45.23
2018-02-20T15:41:36.706Z,42.40
2018-02-20T15:44:04.224Z,46.23
2018-02-20T15:46:31.764Z,46.43
2018-02-20T15:48:59.192Z,46.33
2018-02-20T15:51:26.672Z,44.37
2018-02-20T15:53:54.188Z,46.97
2018-02-20T15:56:21.779Z,44.77
2018-02-20T15:58:49.382Z,44.90
2018-02-20T16:01:16.978Z,46.23
2018-02-20T16:03:44.504Z,47.23
2018-02-20T16:06:12.006Z,45.30
2018-02-20T16:08:39.474Z,47.37
2018-02-20T16:11:06.936Z,49.37
2018-02-20T16:13:34.491Z,46.13
2018-02-20T16:16:15.849Z,45.37
2018-02-20T16:18:43.337Z,48.50
2018-02-20T16:21:10.913Z,47.47
2018-02-20T16:23:38.370Z,46.17
2018-02-20T16:26:05.857Z,49.47
2018-02-20T16:28:33.337Z,47.80
2018-02-20T16:31:00.808Z,51.17
2018-02-20T16:33:28.414Z,47.83
2018-02-20T16:35:55.944Z,46.30
2018-02-20T16:38:23.471Z,46.83
2018-02-20T16:40:51.015Z,46.77
2018-02-20T16:43:18.583Z,46.63
2018-02-20T16:45:46.137Z,47.37
2018-02-20T16:48:13.616Z,48.40
2018-02-20T16:50:41.337Z,46.37
2018-02-20T16:53:08.839Z,51.13
2018-02-20T16:55:36.290Z,50.57
2018-02-20T16:58:03.766Z,49.73
2018-02-20T17:00:31.280Z,51.13
2018-02-20T17:02:58.748Z,51.53
2018-02-20T17:05:27.501Z,55.27
2018-02-20T17:07:54.992Z,52.20
2018-02-20T17:10:22.483Z,49.97
2018-02-20T17:12:49.967Z,47.83
2018-02-20T17:15:17.439Z,44.60
2018-02-20T17:17:45.002Z,45.17
2018-02-20T17:20:12.601Z,44.87
2018-02-20T17:22:40.109Z,42.33
2018-02-20T17:25:07.666Z,41.07
2018-02-20T17:27:35.155Z,39.70
2018-02-20T17:30:02.632Z,37.60
2018-02-20T17:32:30.099Z,36.53
2018-02-20T17:34:57.690Z,37.80
2018-02-20T17:37:25.218Z,36.00
2018-02-20T17:39:52.709Z,36.07
2018-02-20T17:42:20.246Z,33.97
2018-02-20T17:44:47.849Z,36.30
2018-02-20T17:47:15.354Z,33.90
2018-02-20T17:49:42.822Z,34.13
2018-02-20T17:52:10.317Z,34.70
2018-02-20T17:54:37.782Z,33.27
2018-02-20T17:57:05.277Z,36.27
2018-02-20T17:59:32.740Z,31.27
2018-02-20T18:02:00.215Z,32.67
2018-02-20T18:04:27.691Z,32.33
2018-02-20T18:06:55.238Z,36.13
2018-02-20T18:09:22.872Z,31.40
2018-02-20T18:11:50.500Z,35.40
2018-02-20T18:14:17.990Z,34.47
2018-02-20T18:16:45.545Z,34.10
2018-02-20T18:19:13.020Z,33.83
2018-02-20T18:21:40.600Z,32.80
2018-02-20T18:24:08.133Z,34.20
2018-02-20T18:26:35.631Z,33.17
2018-02-20T18:29:03.116Z,29.80
2018-02-20T18:31:30.581Z,31.73
2018-02-20T18:33:58.121Z,31.07
2018-02-20T18:36:25.593Z,31.37
2018-02-20T18:38:53.602Z,30.93
2018-02-20T18:41:21.102Z,31.57
2018-02-20T18:43:48.587Z,29.27
2018-02-20T18:46:16.138Z,32.13
2018-02-20T18:48:43.612Z,30.57
2018-02-20T18:51:11.158Z,29.77
2018-02-20T18:53:38.642Z,31.73
2018-02-20T18:56:06.117Z,32.83
2018-02-20T18:58:33.591Z,32.70
2018-02-20T19:01:01.390Z,31.73
2018-02-20T19:03:28.928Z,33.07
2018-02-20T19:05:56.541Z,32.17
2018-02-20T19:08:24.025Z,30.10
2018-02-20T19:10:51.510Z,32.20
2018-02-20T19:13:19.929Z,34.83
2018-02-20T19:15:47.446Z,34.40
2018-02-20T19:18:14.923Z,34.10
2018-02-20T19:20:42.407Z,33.53
2018-02-20T19:23:09.925Z,32.00
2018-02-20T19:25:37.409Z,36.33
2018-02-20T19:28:04.891Z,34.47
2018-02-20T19:30:32.380Z,35.43
2018-02-20T19:32:59.853Z,34.03
2018-02-20T19:35:27.319Z,33.50
2018-02-20T19:37:54.881Z,35.50
2018-02-20T19:40:22.490Z,34.97
2018-02-20T19:42:50.067Z,35.57
2018-02-20T19:45:17.557Z,35.90
2018-02-20T19:47:45.033Z,36.70
2018-02-20T19:50:12.495Z,37.50
2018-02-20T19:52:40.113Z,37.60
2018-02-20T19:55:07.653Z,36.40
2018-02-20T19:57:36.016Z,34.27
2018-02-20T20:00:03.511Z,32.43
2018-02-20T20:02:31.051Z,35.53
2018-02-20T20:04:58.529Z,33.57
2018-02-20T20:07:26.065Z,35.77
2018-02-20T20:09:53.632Z,34.57
2018-02-20T20:12:21.154Z,34.77
2018-02-20T20:14:48.939Z,34.50
2018-02-20T20:17:16.397Z,34.73
2018-02-20T20:19:43.896Z,36.43
2018-02-20T20:22:11.513Z,34.97
2018-02-20T20:24:38.986Z,35.80
2018-02-20T20:27:06.482Z,34.90
2018-02-20T20:29:33.938Z,37.03
2018-02-20T20:32:01.547Z,37.10
2018-02-20T20:34:29.169Z,34.30
2018-02-20T20:36:56.645Z,35.47
2018-02-20T20:39:25.475Z,34.63
2018-02-20T20:41:52.953Z,36.63
2018-02-20T20:44:20.462Z,31.00
2018-02-20T20:46:47.955Z,33.00
2018-02-20T20:49:15.441Z,33.27
2018-02-20T20:51:42.908Z,33.10
2018-02-20T20:54:10.409Z,33.10
2018-02-20T20:56:37.885Z,32.40
2018-02-20T20:59:05.347Z,32.97
2018-02-20T21:01:32.834Z,32.87
2018-02-20T21:04:00.392Z,32.40
2018-02-20T21:06:27.879Z,33.27
2018-02-20T21:08:55.356Z,33.87
2018-02-20T21:11:22.843Z,35.00
2018-02-20T21:13:50.313Z,31.80
2018-02-20T21:16:17.852Z,33.33
2018-02-20T21:18:45.349Z,33.30
2018-02-20T21:21:13.007Z,33.10
2018-02-20T21:23:40.486Z,31.43
2018-02-20T21:26:07.960Z,33.80
2018-02-20T21:28:35.440Z,30.83
2018-02-20T21:31:02.985Z,34.57
2018-02-20T21:33:30.505Z,32.57
2018-02-20T21:35:58.076Z,31.10
2018-02-20T21:38:25.570Z,31.40
2018-02-20T21:40:53.062Z,33.87
2018-02-20T21:43:20.569Z,32.63
2018-02-20T21:45:48.107Z,32.20
2018-02-20T21:48:15.575Z,29.77
2018-02-20T21:50:43.164Z,33.13
2018-02-20T21:53:10.641Z,31.67
2018-02-20T21:55:38.128Z,31.47
2018-02-20T21:58:05.607Z,31.13
2018-02-20T22:00:33.099Z,31.63
2018-02-20T22:03:00.568Z,28.80
2018-02-20T22:05:28.080Z,31.00
2018-02-20T22:07:55.561Z,31.10
2018-02-20T22:10:23.143Z,32.03
2018-02-20T22:12:50.628Z,30.23
2018-02-20T22:15:18.101Z,30.27
2018-02-20T22:17:45.646Z,29.33
2018-02-20T22:20:13.142Z,31.47
2018-02-20T22:22:40.649Z,31.80
2018-02-20T22:25:08.158Z,31.40
2018-02-20T22:27:35.640Z,32.37
2018-02-20T22:30:03.209Z,30.47
2018-02-20T22:32:30.762Z,31.80
2018-02-20T22:34:58.241Z,31.60
2018-02-20T22:37:25.735Z,30.00
2018-02-20T22:39:53.210Z,29.60
2018-02-20T22:42:21.584Z,29.93
2018-02-20T22:44:49.137Z,29.63
2018-02-20T22:47:16.613Z,28.50
2018-02-20T22:49:44.193Z,30.00
2018-02-20T22:52:11.754Z,28.07
2018-02-20T22:54:39.249Z,29.67
2018-02-20T22:57:06.772Z,27.13
2018-02-20T22:59:34.422Z,27.10
2018-02-20T23:02:01.882Z,27.47
2018-02-20T23:04:29.468Z,27.77
2018-02-20T23:06:56.990Z,26.17
2018-02-20T23:09:24.600Z,29.60
2018-02-20T23:11:52.104Z,28.07
2018-02-20T23:14:19.578Z,27.40
2018-02-20T23:16:47.061Z,28.83
2018-02-20T23:19:14.565Z,25.13
2018-02-20T23:21:42.049Z,28.57
2018-02-20T23:24:09.543Z,28.83
2018-02-20T23:26:37.066Z,30.37
2018-02-20T23:29:04.641Z,30.23
2018-02-20T23:31:32.194Z,29.47
2018-02-20T23:33:59.662Z,29.73
2018-02-20T23:36:27.152Z,28.73
2018-02-20T23:38:54.638Z,27.90
2018-02-20T23:41:22.191Z,27.67
2018-02-20T23:43:49.666Z,29.53
2018-02-20T23:46:17.161Z,28.70
2018-02-20T23:48:45.326Z,28.13
2018-02-20T23:51:18.474Z,26.87
2018-02-20T23:53:46.308Z,29.07
2018-02-20T23:56:13.780Z,29.93
2018-02-20T23:58:41.259Z,28.83
